Stations météo

Publicité
Siracusa, Italie (16464): Température de l'air & dewpoint: 18.10.2018 00:00:00 - 24.10.2018 00:00:00 (CEST)Siracusa, Italie (16464): Vitesse du vent: 18.10.2018 00:00:00 - 24.10.2018 00:00:00 (CEST)Siracusa, Italie (16464): Direction du vent: 18.10.2018 00:00:00 - 24.10.2018 00:00:00 (CEST)Siracusa, Italie (16464): reduced air pressure: 18.10.2018 00:00:00 - 24.10.2018 00:00:00 (CEST)Siracusa, Italie (16464): Quantités de précipitations: 18.10.2018 00:00:00 - 24.10.2018 00:00:00 (CEST)
Date & Time tt [°C] td [°C] ff [km/h] ff [knt] dd ppp [hPa] rr [mm]
24.10.2018 00:00:00 - - - - - - -
23.10.2018 23:00:00 19,9 14,8 31 17 S 1012,9 -
23.10.2018 22:00:00 20,5 15,4 29 16 SSE 1012,7 -
23.10.2018 21:00:00 20,3 15,4 15 8 SE 1011,7 -
23.10.2018 20:00:00 20,6 15,3 24 13 SW 1011,7 -
23.10.2018 19:00:00 20,5 15,8 21 11 S 1011,2 -
23.10.2018 18:00:00 18,7 14,7 8 4 E 1010,6 -
23.10.2018 17:00:00 20,7 14,0 13 7 SE 1010,4 -
23.10.2018 16:00:00 21,8 13,3 16 9 E 1010,1 -
23.10.2018 15:00:00 21,6 12,7 18 10 S 1010,0 -
23.10.2018 14:00:00 21,5 13,3 16 9 S 1010,1 0,0
23.10.2018 13:00:00 20,9 13,5 16 9 SE 1010,7 -
23.10.2018 12:00:00 20,5 13,1 24 13 W 1010,6 -
23.10.2018 11:00:00 20,4 14,2 21 11 SSE 1010,6 -
23.10.2018 10:00:00 19,8 14,1 9 5 N 1010,3 -
23.10.2018 09:00:00 17,4 12,8 5 3 SW 1010,0 -
23.10.2018 08:00:00 14,9 10,5 2 1 SW 1009,4 0,0
23.10.2018 07:00:00 15,4 9,9 2 1 SSW 1009,2 -
23.10.2018 06:00:00 14,7 9,0 2 1 S 1009,0 -
23.10.2018 05:00:00 14,6 8,3 4 2 SSW 1009,0 -
23.10.2018 04:00:00 16,0 8,4 5 3 S 1009,2 -
23.10.2018 03:00:00 16,0 7,9 0 0 N 1010,0 -
23.10.2018 02:00:00 17,2 7,7 4 2 SSW 1010,5 0,0
23.10.2018 01:00:00 17,7 9,5 4 2 WSW 1010,6 -
23.10.2018 00:00:00 18,6 12,5 2 1 SSW 1011,0 -
22.10.2018 23:00:00 19,4 11,4 8 4 SSW 1010,9 -
22.10.2018 22:00:00 20,0 13,6 4 2 S 1010,6 -
22.10.2018 21:00:00 20,0 13,4 0 0 N 1010,2 -
22.10.2018 20:00:00 20,3 12,5 5 3 WSW 1010,5 -
22.10.2018 19:00:00 21,4 15,6 8 4 SW 1009,7 -
22.10.2018 18:00:00 22,8 17,4 2 1 N 1008,8 -
22.10.2018 17:00:00 22,5 17,1 8 4 SW 1009,0 -
22.10.2018 16:00:00 22,5 16,5 8 4 N 1009,8 -
22.10.2018 15:00:00 22,0 15,7 13 7 ENE 1010,3 -
22.10.2018 14:00:00 22,0 16,0 9 5 ENE 1011,0 -
22.10.2018 13:00:00 21,0 14,6 5 3 S 1011,7 -
22.10.2018 12:00:00 20,7 15,8 5 3 S 1011,8 -
22.10.2018 11:00:00 20,6 17,2 4 2 WSW 1012,1 -
22.10.2018 10:00:00 17,2 14,6 5 3 N 1011,6 -
22.10.2018 09:00:00 16,8 14,0 5 3 N 1012,2 -
22.10.2018 08:00:00 17,5 15,6 5 3 SSW 1012,3 0,0
22.10.2018 07:00:00 16,8 14,7 8 4 SSW 1011,6 -
22.10.2018 06:00:00 16,9 14,5 5 3 N 1011,9 -
22.10.2018 05:00:00 17,0 14,6 4 2 N 1012,3 -
22.10.2018 04:00:00 17,4 14,4 4 2 NNE 1012,3 -
22.10.2018 03:00:00 17,9 14,5 4 2 N 1013,4 -
22.10.2018 02:00:00 18,7 14,7 4 2 NNE 1014,2 0,0
22.10.2018 01:00:00 19,5 15,3 2 1 SSW 1014,9 -
22.10.2018 00:00:00 20,3 15,6 15 8 W 1014,9 -
21.10.2018 23:00:00 20,1 15,9 8 4 WNW 1014,9 -
21.10.2018 22:00:00 20,9 17,2 15 8 SW 1014,4 -
21.10.2018 21:00:00 20,6 17,3 11 6 NNW 1014,8 -
21.10.2018 20:00:00 21,4 17,1 15 8 S 1015,1 0,0
21.10.2018 19:00:00 21,9 18,0 21 11 W 1015,0 -
21.10.2018 18:00:00 22,9 18,6 22 12 NW 1015,0 -
21.10.2018 17:00:00 23,3 18,1 21 11 W 1015,4 -
21.10.2018 16:00:00 23,4 18,0 13 7 SE 1016,0 -
21.10.2018 15:00:00 22,8 18,7 21 11 WSW 1016,6 -
21.10.2018 14:00:00 23,1 17,9 18 10 SSE 1017,0 0,0
21.10.2018 13:00:00 23,3 17,4 15 8 SE 1017,7 -
21.10.2018 12:00:00 23,1 15,3 11 6 WNW 1018,2 -
21.10.2018 11:00:00 22,6 16,3 2 1 N 1018,5 -
21.10.2018 10:00:00 20,9 16,6 2 1 E 1018,9 -
21.10.2018 09:00:00 18,6 16,5 0 0 N 1018,7 -
21.10.2018 08:00:00 17,3 14,9 2 1 SSE 1018,4 0,0
21.10.2018 07:00:00 17,4 15,0 2 1 SE 1018,5 -
21.10.2018 06:00:00 17,0 14,6 2 1 SSE 1018,8 -
21.10.2018 05:00:00 16,9 14,1 2 1 SE 1018,7 -
21.10.2018 04:00:00 17,7 14,9 0 0 N 1018,6 -
21.10.2018 03:00:00 17,9 15,1 4 2 ESE 1019,4 -
21.10.2018 02:00:00 18,5 15,9 2 1 SE 1019,5 0,0
21.10.2018 01:00:00 18,1 15,5 5 3 ESE 1019,9 -
21.10.2018 00:00:00 18,4 15,4 4 2 SE 1020,1 -
20.10.2018 23:00:00 18,7 15,1 5 3 ESE 1020,4 -
20.10.2018 22:00:00 19,8 15,8 4 2 SE 1020,2 -
20.10.2018 21:00:00 21,1 16,2 2 1 SE 1020,1 -
20.10.2018 20:00:00 22,3 16,9 2 1 SSW 1019,9 0,0
20.10.2018 19:00:00 22,5 17,6 0 0 N 1019,4 -
20.10.2018 18:00:00 22,9 17,9 8 4 W 1019,1 -
20.10.2018 17:00:00 23,3 17,9 8 4 S 1019,2 -
20.10.2018 16:00:00 23,5 17,6 9 5 W 1019,4 -
20.10.2018 15:00:00 23,6 18,0 9 5 WSW 1019,6 -
20.10.2018 14:00:00 23,9 18,7 9 5 WNW 1019,8 0,0
20.10.2018 13:00:00 23,7 18,7 13 7 S 1020,1 -
20.10.2018 12:00:00 23,4 18,6 11 6 SSW 1020,0 -
20.10.2018 11:00:00 23,4 18,4 9 5 WNW 1019,9 -
20.10.2018 10:00:00 23,1 18,8 11 6 S 1019,7 -
20.10.2018 09:00:00 22,4 18,3 11 6 SSE 1019,1 -
20.10.2018 08:00:00 21,9 18,0 9 5 E 1018,3 0,0
20.10.2018 07:00:00 21,9 18,0 11 6 SSW 1018,0 -
20.10.2018 06:00:00 22,0 17,9 11 6 SW 1017,6 -
20.10.2018 05:00:00 22,1 18,4 9 5 NW 1017,5 -
20.10.2018 04:00:00 22,2 18,3 8 4 SSE 1017,3 -
20.10.2018 03:00:00 22,2 18,1 8 4 NW 1017,5 -
20.10.2018 02:00:00 22,2 18,5 4 2 NW 1017,5 0,0
20.10.2018 01:00:00 22,1 17,6 5 3 NW 1017,3 -
20.10.2018 00:00:00 22,1 18,4 4 2 NNW 1017,2 -
19.10.2018 23:00:00 21,9 17,8 4 2 NW 1017,0 -
19.10.2018 22:00:00 22,3 17,8 8 4 N 1016,7 -
19.10.2018 21:00:00 22,7 18,4 8 4 W 1016,3 -
19.10.2018 20:00:00 22,2 17,7 4 2 NW 1016,0 0,0
19.10.2018 19:00:00 22,3 17,8 5 3 NW 1015,2 -
19.10.2018 18:00:00 22,5 17,6 5 3 W 1014,3 -
19.10.2018 17:00:00 22,7 17,3 9 5 NW 1014,2 -
19.10.2018 16:00:00 23,0 17,6 11 6 WSW 1014,1 -
19.10.2018 15:00:00 22,5 17,8 9 5 ESE 1013,7 -
19.10.2018 14:00:00 22,0 17,1 9 5 SE 1013,5 0,0
19.10.2018 13:00:00 21,8 16,0 11 6 S 1013,8 -
19.10.2018 12:00:00 20,9 16,6 13 7 ESE 1014,0 -
19.10.2018 11:00:00 20,8 16,7 13 7 ESE 1013,7 -
19.10.2018 10:00:00 19,5 16,7 9 5 E 1013,6 -
19.10.2018 09:00:00 18,9 16,8 4 2 SSE 1012,7 -
19.10.2018 08:00:00 18,0 16,3 0 0 N 1012,1 -
19.10.2018 07:00:00 17,3 15,8 4 2 S 1011,9 -
19.10.2018 06:00:00 16,7 15,0 4 2 SSW 1012,1 -
19.10.2018 05:00:00 16,4 14,0 2 1 S 1011,9 -
19.10.2018 04:00:00 22,9 20,6 13 7 SSW 1010,6 -
19.10.2018 03:00:00 22,7 20,4 16 9 SE 1010,5 -
19.10.2018 02:00:00 22,7 20,4 18 10 SE 1011,3 -
19.10.2018 01:00:00 22,5 20,0 15 8 E 1011,3 -
19.10.2018 00:00:00 21,6 18,1 13 7 E 1011,9 -
18.10.2018 23:00:00 22,6 20,3 21 11 ESE 1010,0 -
18.10.2018 22:00:00 22,5 20,4 16 9 WNW 1010,9 -
18.10.2018 21:00:00 22,7 20,0 11 6 SE 1011,4 -
18.10.2018 20:00:00 22,5 20,0 8 4 ENE 1011,6 -
18.10.2018 19:00:00 22,4 19,5 9 5 NE 1011,5 -
18.10.2018 18:00:00 22,7 19,4 8 4 SW 1010,9 -
18.10.2018 17:00:00 23,1 19,4 16 9 SSW 1009,3 -
18.10.2018 16:00:00 22,6 19,7 24 13 WSW 1007,5 -
18.10.2018 15:00:00 23,2 18,9 11 6 NNE 1011,2 -
18.10.2018 14:00:00 23,6 19,3 18 10 NNE 1011,0 0,0
18.10.2018 13:00:00 23,2 18,7 16 9 SSW 1011,8 -
18.10.2018 12:00:00 23,3 18,5 15 8 SE 1012,4 -
18.10.2018 11:00:00 23,2 18,7 16 9 ESE 1012,5 -
18.10.2018 10:00:00 23,1 18,8 11 6 SSE 1012,7 -
18.10.2018 09:00:00 22,7 18,4 11 6 S 1012,9 -
18.10.2018 08:00:00 22,5 18,0 13 7 SW 1012,4 0,0
18.10.2018 07:00:00 22,5 18,2 13 7 S 1012,3 -
18.10.2018 06:00:00 22,5 18,2 11 6 N 1011,9 -
18.10.2018 05:00:00 22,5 18,2 11 6 S 1011,6 -
18.10.2018 04:00:00 22,5 18,2 9 5 N 1012,0 -
18.10.2018 03:00:00 22,5 18,2 11 6 SSE 1012,9 -
18.10.2018 02:00:00 22,5 18,0 9 5 NNW 1013,5 0,0
18.10.2018 01:00:00 22,5 18,2 11 6 N 1013,9 -
18.10.2018 00:00:00 22,6 18,1 9 5 NE 1014,2 -

tt = Température de l'air
td = dewpoint
ff = Vitesse du vent
dd = Direction du vent
ppp = reduced air pressure
rr = Quantités de précipitations

stations d'obs. à proximité